»·PEaware :: N124AG KSBD-KSBP

N124AG :: KSBD-KSBP

FLIGHT INFORMATION

Flight Status: Arrived
Operator: Privately registered:
United States
More flights under this callsign
Pilot: Michael M. (17510)
Aircraft: PIPER PA-31/31P NAVAJO CHIEFTAIN
(PA31)
More flights by this aircraft type
Origin: KSBD San Bernardino Intl
United States
Destination: KSBP San Luis Co Regl
United States
More flights between these airports :: More routes between these airports
Route: +PDZ V186 FIM V386 RZS MQO
File this flight plan on PilotEdge
Remarks:
Altitude:
(Current/Filed)
8,000ft
Speed:
(Current/Filed)
180kts
Departed: 18-Sep-18 11:15 AM
Arrived: 18-Sep-18 12:21 PM
Distance/Time
Traveled:
181nm/1:06
Distance/Time
To Go:
Arrived

Flight Plot

Page will automatically refresh every two minutes.

Flight plan parsing failed; only flown route is shown


Map Options




Map Legend


Flown Route
Filed Route
Departure Airport
Arrival Airport
Navaid (VOR, NDB)
Fix

Horizontal Profiles

Position Reports

Time Latitude Longitude Heading Altitude Ground
Speed
18-Sep-18 10:57 34.098157 -117.242496 359 1099ft 0kts
18-Sep-18 10:58 34.098157 -117.242496 359 1099ft 0kts
18-Sep-18 10:59 34.098157 -117.242496 359 1099ft 0kts
18-Sep-18 11:00 34.098157 -117.242496 359 1099ft 0kts
18-Sep-18 11:01 34.098157 -117.242496 359 1099ft 0kts
18-Sep-18 11:02 34.098157 -117.242496 359 1099ft 0kts
18-Sep-18 11:03 34.098157 -117.242496 359 1099ft 0kts
18-Sep-18 11:04 34.098157 -117.242496 359 1099ft 0kts
18-Sep-18 11:05 34.098157 -117.242496 359 1099ft 0kts
18-Sep-18 11:06 34.098157 -117.242496 359 1099ft 0kts
18-Sep-18 11:07 34.098157 -117.242496 359 1099ft 0kts
18-Sep-18 11:08 34.098157 -117.242496 359 1099ft 0kts
18-Sep-18 11:09 34.098157 -117.242496 359 1099ft 0kts
18-Sep-18 11:10 34.098159 -117.242496 0 1099ft 0kts
18-Sep-18 11:11 34.096851 -117.241961 181 1099ft 9kts
18-Sep-18 11:12 34.094381 -117.244261 250 1094ft 13kts
18-Sep-18 11:13 34.092732 -117.249814 250 1084ft 14kts
18-Sep-18 11:14 34.091670 -117.250760 157 1082ft 0kts
18-Sep-18 11:15 34.090911 -117.250197 130 1082ft 9kts
18-Sep-18 11:16 34.091042 -117.249198 71 1085ft 39kts
18-Sep-18 11:17 34.100845 -117.214091 72 1491ft 139kts
18-Sep-18 11:18 34.080256 -117.197188 231 2857ft 125kts
18-Sep-18 11:19 34.061234 -117.230358 237 4252ft 117kts
18-Sep-18 11:20 34.044716 -117.262194 244 5636ft 109kts
18-Sep-18 11:21 34.040495 -117.297084 270 7021ft 118kts
18-Sep-18 11:22 34.042458 -117.341218 271 7987ft 158kts
18-Sep-18 11:23 34.044942 -117.400271 271 7982ft 185kts
18-Sep-18 11:24 34.047659 -117.462539 280 7971ft 188kts
18-Sep-18 11:25 34.052992 -117.524601 272 7980ft 187kts
18-Sep-18 11:26 34.055178 -117.587581 272 7980ft 187kts
18-Sep-18 11:27 34.058365 -117.649907 274 7983ft 188kts
18-Sep-18 11:28 34.062018 -117.712438 273 7988ft 195kts
18-Sep-18 11:29 34.065539 -117.777793 273 7992ft 196kts
18-Sep-18 11:30 34.068801 -117.843161 273 7997ft 196kts
18-Sep-18 11:31 34.071960 -117.908765 273 7994ft 196kts
18-Sep-18 11:32 34.075154 -117.974817 273 7989ft 197kts
18-Sep-18 11:33 34.085664 -118.039018 291 7990ft 196kts
18-Sep-18 11:34 34.104319 -118.101021 289 7999ft 196kts
18-Sep-18 11:35 34.124061 -118.161911 291 8000ft 196kts
18-Sep-18 11:36 34.146089 -118.224994 290 8000ft 207kts
18-Sep-18 11:37 34.166993 -118.289717 287 7999ft 206kts
18-Sep-18 11:38 34.186230 -118.354700 287 7998ft 204kts
18-Sep-18 11:39 34.207057 -118.418783 289 7998ft 205kts
18-Sep-18 11:40 34.228136 -118.482978 289 7999ft 207kts
18-Sep-18 11:41 34.249378 -118.548039 289 7999ft 208kts
18-Sep-18 11:42 34.270240 -118.613362 289 8000ft 204kts
18-Sep-18 11:43 34.287220 -118.674396 289 7996ft 195kts
18-Sep-18 11:44 34.307047 -118.735626 290 7994ft 195kts
18-Sep-18 11:45 34.327573 -118.796545 290 7991ft 196kts
18-Sep-18 11:46 34.348607 -118.857682 290 7991ft 197kts
18-Sep-18 11:47 34.363050 -118.921086 281 7990ft 196kts
18-Sep-18 11:48 34.375620 -118.985676 282 7990ft 197kts
18-Sep-18 11:49 34.387599 -119.050289 281 7990ft 197kts
18-Sep-18 11:50 34.399176 -119.114788 281 8002ft 196kts
18-Sep-18 11:51 34.410577 -119.179599 280 8004ft 196kts
18-Sep-18 11:52 34.421386 -119.244227 280 8006ft 196kts
18-Sep-18 11:53 34.432358 -119.309065 280 8008ft 196kts
18-Sep-18 11:54 34.443787 -119.373947 280 8008ft 197kts
18-Sep-18 11:55 34.455413 -119.439221 279 8008ft 199kts
18-Sep-18 11:56 34.466662 -119.505098 277 7999ft 200kts
18-Sep-18 11:57 34.476436 -119.571969 277 7999ft 202kts
18-Sep-18 11:58 34.486278 -119.639105 277 7999ft 202kts
18-Sep-18 11:59 34.497082 -119.705719 279 8000ft 202kts
18-Sep-18 12:00 34.510631 -119.771793 303 7980ft 207kts
18-Sep-18 12:01 34.548266 -119.824929 308 8009ft 211kts
18-Sep-18 12:02 34.586961 -119.880080 309 8008ft 216kts
18-Sep-18 12:03 34.628130 -119.933524 311 8027ft 213kts
18-Sep-18 12:04 34.667715 -119.984276 312 8023ft 204kts
18-Sep-18 12:05 34.700193 -120.026169 312 8027ft 205kts
18-Sep-18 12:06 34.739349 -120.076607 312 8027ft 205kts
18-Sep-18 12:07 34.785175 -120.135378 312 8001ft 205kts
18-Sep-18 12:08 34.824118 -120.184829 312 8003ft 198kts
18-Sep-18 12:09 34.855704 -120.224811 311 8006ft 197kts
18-Sep-18 12:10 34.893575 -120.273123 311 8009ft 197kts
18-Sep-18 12:11 34.931550 -120.321244 311 8009ft 198kts
18-Sep-18 12:12 34.968347 -120.367758 311 7638ft 163kts
18-Sep-18 12:13 34.998023 -120.402112 316 6614ft 139kts
18-Sep-18 12:14 35.026442 -120.431712 316 4898ft 132kts
18-Sep-18 12:15 35.053598 -120.460407 316 4001ft 130kts
18-Sep-18 12:16 35.082528 -120.487405 321 3987ft 131kts
18-Sep-18 12:17 35.111485 -120.513270 321 3507ft 123kts
18-Sep-18 12:18 35.139259 -120.536073 325 2103ft 123kts
18-Sep-18 12:19 35.167181 -120.557700 325 1389ft 114kts
18-Sep-18 12:20 35.190644 -120.575727 324 1266ft 106kts
18-Sep-18 12:21 35.212623 -120.599371 311 1027ft 99kts
18-Sep-18 12:22 35.228965 -120.626419 304 410ft 97kts
18-Sep-18 12:23 35.239237 -120.644154 337 184ft 19kts
18-Sep-18 12:24 35.238993 -120.642089 127 184ft 20kts
18-Sep-18 12:25 35.238505 -120.639979 306 184ft 0kts

Navigation Log

Ident Type
Flight plan parsing failed, navigation log unavailable